Time;durP1;ratioP1;P1;durP2;ratioP2;P2;SDS_P1;SDS_P2;PMS_P1;PMS_P2;Temp;Humidity;BMP_temperature;BMP_pressure;BME280_temperature;BME280_humidity;BME280_pressure;Samples;Min_cycle;Max_cycle;Signal;HPM_P1;HPM_P2
2023/12/02 00:01:57;;;;;;;10.38;7.60;;;2.00;99.90;;;;;;4952764;28;20207;-75
2023/12/02 00:04:23;;;;;;;9.53;7.10;;;2.00;99.90;;;;;;4952719;28;20551;-75
2023/12/02 00:06:49;;;;;;;10.73;6.83;;;2.00;99.90;;;;;;4973588;28;20266;-74
2023/12/02 00:09:14;;;;;;;10.63;6.80;;;2.00;99.90;;;;;;4936774;28;20579;-75
2023/12/02 00:11:40;;;;;;;10.83;6.90;;;2.00;99.90;;;;;;4952635;28;20245;-74
2023/12/02 00:14:06;;;;;;;7.83;6.00;;;2.00;99.90;;;;;;4969784;28;20237;-75
2023/12/02 00:16:31;;;;;;;9.30;6.80;;;2.00;99.90;;;;;;4970301;28;20180;-75
2023/12/02 00:18:57;;;;;;;12.03;8.50;;;2.00;99.90;;;;;;4933809;28;20195;-75
2023/12/02 00:21:23;;;;;;;11.47;7.37;;;2.00;99.90;;;;;;4933172;28;20541;-74
2023/12/02 00:23:48;;;;;;;9.40;7.30;;;2.00;99.90;;;;;;4965884;28;20187;-74
2023/12/02 00:26:14;;;;;;;10.20;7.47;;;2.00;99.90;;;;;;4970039;28;20184;-75
2023/12/02 00:28:44;;;;;;;10.70;8.30;;;2.00;99.90;;;;;;4936505;28;20187;-75
2023/12/02 00:31:10;;;;;;;9.20;6.53;;;2.00;99.90;;;;;;4935693;28;20204;-75
2023/12/02 00:33:36;;;;;;;8.63;6.13;;;2.00;99.90;;;;;;4969548;28;20199;-76
2023/12/02 00:36:05;;;;;;;12.10;7.77;;;2.00;99.90;;;;;;5011818;28;20184;-75
2023/12/02 00:38:31;;;;;;;10.18;7.95;;;2.00;99.90;;;;;;4969708;28;20564;-76
2023/12/02 00:40:56;;;;;;;9.50;7.93;;;2.00;99.90;;;;;;4968053;28;20709;-76
2023/12/02 00:43:22;;;;;;;10.10;7.10;;;2.00;99.90;;;;;;4937054;28;20329;-74
2023/12/02 00:45:48;;;;;;;10.13;8.00;;;2.00;99.90;;;;;;4939762;28;20176;-74
2023/12/02 00:48:14;;;;;;;7.47;5.90;;;1.90;99.90;;;;;;4968150;28;20184;-74
2023/12/02 00:50:39;;;;;;;8.65;6.53;;;1.90;99.90;;;;;;4969624;28;20245;-74
2023/12/02 00:53:05;;;;;;;11.83;8.13;;;2.00;99.90;;;;;;4951892;28;20196;-74
2023/12/02 00:55:31;;;;;;;10.37;7.20;;;1.90;99.90;;;;;;4969484;28;20540;-74
2023/12/02 00:57:56;;;;;;;8.93;7.80;;;2.00;99.90;;;;;;4936310;28;20184;-75
2023/12/02 01:00:22;;;;;;;9.83;7.10;;;1.90;99.90;;;;;;4952170;28;20206;-75
2023/12/02 01:02:48;;;;;;;9.27;6.93;;;1.90;99.90;;;;;;4969151;28;20200;-75
2023/12/02 01:05:14;;;;;;;9.13;6.80;;;2.00;99.90;;;;;;4936088;28;20618;-74
2023/12/02 01:07:39;;;;;;;9.63;7.57;;;2.00;99.90;;;;;;4936103;28;20196;-76
2023/12/02 01:10:06;;;;;;;8.10;6.37;;;2.00;99.90;;;;;;4969187;28;20215;-75
2023/12/02 01:12:31;;;;;;;13.88;8.98;;;2.00;99.90;;;;;;4951149;28;20233;-75
2023/12/02 01:14:57;;;;;;;9.13;7.70;;;2.00;99.90;;;;;;4951904;28;20172;-75
2023/12/02 01:17:23;;;;;;;9.70;7.73;;;2.00;99.90;;;;;;4969052;28;20180;-75
2023/12/02 01:19:48;;;;;;;8.97;6.70;;;2.00;99.90;;;;;;4968796;28;20203;-75
2023/12/02 01:22:14;;;;;;;9.37;6.90;;;2.00;99.90;;;;;;4952454;28;20709;-75
2023/12/02 01:24:40;;;;;;;13.03;8.40;;;2.00;99.90;;;;;;4935866;28;20206;-74
2023/12/02 01:27:05;;;;;;;9.10;7.53;;;2.00;99.90;;;;;;4968844;28;20229;-74
2023/12/02 01:29:31;;;;;;;8.10;6.33;;;2.00;99.90;;;;;;4935731;28;20262;-74
2023/12/02 01:31:56;;;;;;;9.50;7.23;;;2.00;99.90;;;;;;4935662;28;20227;-74
2023/12/02 01:34:22;;;;;;;10.43;7.70;;;2.00;99.90;;;;;;4971617;28;20176;-75
2023/12/02 01:36:48;;;;;;;10.70;8.83;;;2.00;99.90;;;;;;4972479;28;20266;-74
2023/12/02 01:39:14;;;;;;;10.57;7.37;;;2.00;99.90;;;;;;4955182;28;20680;-75
2023/12/02 01:41:40;;;;;;;10.40;6.57;;;2.00;99.90;;;;;;4972533;28;20211;-75
2023/12/02 01:44:05;;;;;;;7.30;6.28;;;1.90;99.90;;;;;;4954780;28;20587;-75
2023/12/02 01:46:31;;;;;;;12.50;9.23;;;1.90;99.90;;;;;;4939807;28;20172;-74
2023/12/02 01:48:59;;;;;;;10.10;7.70;;;1.90;99.90;;;;;;4956547;28;20679;-74
2023/12/02 01:51:27;;;;;;;11.93;9.55;;;1.90;99.90;;;;;;4956455;28;20738;-74
2023/12/02 01:53:53;;;;;;;9.85;7.68;;;1.80;99.90;;;;;;4939972;28;20172;-73
2023/12/02 01:56:19;;;;;;;9.88;7.43;;;1.70;99.90;;;;;;4955573;28;20184;-74
2023/12/02 01:58:49;;;;;;;12.25;7.95;;;1.70;99.90;;;;;;4951482;28;20183;-74
2023/12/02 02:01:15;;;;;;;8.43;6.43;;;1.70;99.90;;;;;;4932311;28;20194;-74
2023/12/02 02:03:40;;;;;;;9.70;7.67;;;1.70;99.90;;;;;;4966646;28;20293;-74
2023/12/02 02:06:09;;;;;;;10.50;7.63;;;1.60;99.90;;;;;;4935321;28;20188;-74
2023/12/02 02:08:35;;;;;;;12.02;9.57;;;1.60;99.90;;;;;;4942300;28;20708;-74
2023/12/02 02:11:19;;;;;;;10.20;7.50;;;1.60;99.90;;;;;;4957055;28;20223;-75
2023/12/02 02:13:45;;;;;;;11.00;7.97;;;1.60;99.90;;;;;;5018835;28;20185;-75
2023/12/02 02:16:12;;;;;;;11.30;8.17;;;1.60;99.90;;;;;;5052216;28;20670;-74
2023/12/02 02:18:38;;;;;;;12.30;8.18;;;1.60;99.90;;;;;;5053653;28;20173;-75
2023/12/02 02:21:04;;;;;;;10.00;7.27;;;1.60;99.90;;;;;;5035017;28;20196;-75
2023/12/02 02:23:29;;;;;;;10.83;7.60;;;1.60;99.90;;;;;;5039037;28;20622;-75
2023/12/02 02:25:55;;;;;;;8.90;7.47;;;1.60;99.90;;;;;;5048109;28;20531;-75
2023/12/02 02:28:26;;;;;;;9.47;6.90;;;1.60;99.90;;;;;;5035535;28;20177;-75
2023/12/02 02:30:52;;;;;;;9.50;6.88;;;1.70;99.90;;;;;;5034819;28;20224;-75
2023/12/02 02:33:18;;;;;;;9.15;6.88;;;1.70;99.90;;;;;;5018198;28;20193;-75
2023/12/02 02:35:44;;;;;;;11.02;7.95;;;1.80;99.90;;;;;;5044954;28;20283;-75
2023/12/02 02:38:13;;;;;;;10.93;7.78;;;1.80;99.90;;;;;;5021004;28;20200;-75
2023/12/02 02:40:39;;;;;;;8.82;7.03;;;1.80;99.90;;;;;;5018979;28;20207;-75
2023/12/02 02:43:05;;;;;;;7.73;5.90;;;1.90;99.90;;;;;;5034776;28;20697;-75
2023/12/02 02:45:31;;;;;;;10.23;7.38;;;1.90;99.90;;;;;;5035324;28;20995;-75
2023/12/02 02:47:57;;;;;;;10.05;7.88;;;1.90;99.90;;;;;;5069130;28;20298;-75
2023/12/02 02:50:23;;;;;;;8.95;6.90;;;2.00;99.90;;;;;;5035239;28;20235;-75
2023/12/02 02:52:49;;;;;;;8.97;6.93;;;2.00;99.90;;;;;;5035042;28;20208;-76
2023/12/02 02:55:14;;;;;;;7.20;6.07;;;2.00;99.90;;;;;;5034738;28;20284;-75
2023/12/02 02:57:40;;;;;;;8.60;5.83;;;2.00;99.90;;;;;;5034678;28;20562;-75
2023/12/02 03:00:09;;;;;;;10.87;5.90;;;2.10;99.90;;;;;;5034999;28;20181;-75
2023/12/02 03:02:38;;;;;;;10.02;6.70;;;2.10;99.90;;;;;;5052510;28;20201;-75
2023/12/02 03:05:05;;;;;;;9.63;6.82;;;2.10;99.90;;;;;;5035207;28;20272;-75
2023/12/02 03:07:32;;;;;;;8.95;6.55;;;2.10;99.90;;;;;;5018666;28;20177;-76
2023/12/02 03:09:58;;;;;;;7.20;5.90;;;2.10;99.90;;;;;;5034511;28;20276;-76
2023/12/02 03:12:24;;;;;;;8.88;6.45;;;2.20;99.90;;;;;;5038093;28;20252;-75
2023/12/02 03:14:51;;;;;;;7.65;5.72;;;2.20;99.90;;;;;;5034976;28;20199;-75
2023/12/02 03:17:16;;;;;;;9.38;6.93;;;2.20;99.90;;;;;;5018080;28;20556;-76
2023/12/02 03:19:42;;;;;;;9.80;7.60;;;2.20;99.90;;;;;;5034925;28;20181;-75
2023/12/02 03:22:08;;;;;;;8.80;7.00;;;2.20;99.90;;;;;;5034786;28;20575;-76
2023/12/02 03:24:33;;;;;;;9.90;5.87;;;2.20;99.90;;;;;;5039583;28;20184;-75
2023/12/02 03:26:59;;;;;;;6.93;5.50;;;2.20;99.90;;;;;;5034095;28;20189;-75
2023/12/02 03:29:25;;;;;;;7.57;5.70;;;2.30;99.90;;;;;;5034295;28;20168;-75
2023/12/02 03:31:50;;;;;;;10.13;6.47;;;2.30;99.90;;;;;;5033768;28;20218;-75
2023/12/02 03:34:16;;;;;;;9.50;6.80;;;2.30;99.90;;;;;;5042284;28;20180;-75
2023/12/02 03:36:42;;;;;;;7.60;5.93;;;2.30;99.90;;;;;;5052296;28;20173;-75
2023/12/02 03:39:07;;;;;;;8.40;5.77;;;2.30;99.90;;;;;;5054434;28;20172;-75
2023/12/02 03:41:33;;;;;;;7.90;6.50;;;2.40;99.90;;;;;;5017704;28;20185;-75
2023/12/02 03:43:59;;;;;;;8.60;6.50;;;2.40;99.90;;;;;;5034011;28;20180;-75
2023/12/02 03:46:28;;;;;;;8.30;6.33;;;2.40;99.90;;;;;;5068315;28;20185;-75
2023/12/02 03:48:54;;;;;;;11.88;8.88;;;2.40;99.90;;;;;;5034027;28;20768;-75
2023/12/02 03:51:19;;;;;;;11.40;8.47;;;2.40;99.90;;;;;;5036079;28;20262;-75
2023/12/02 03:53:45;;;;;;;10.60;6.47;;;2.40;99.90;;;;;;5034110;28;20707;-75
2023/12/02 03:56:11;;;;;;;8.85;6.78;;;2.50;99.90;;;;;;5034114;28;20181;-75
2023/12/02 03:58:37;;;;;;;11.27;7.23;;;2.50;99.90;;;;;;5059247;28;20169;-75
2023/12/02 04:01:02;;;;;;;9.33;6.40;;;2.50;99.90;;;;;;5051783;28;20185;-75
2023/12/02 04:03:28;;;;;;;8.47;6.43;;;2.50;99.90;;;;;;5016388;28;20200;-75
2023/12/02 04:05:54;;;;;;;9.77;6.13;;;2.50;99.90;;;;;;5033634;28;20646;-75
2023/12/02 04:08:19;;;;;;;9.93;6.97;;;2.50;99.90;;;;;;5053404;28;20165;-75
2023/12/02 04:10:45;;;;;;;8.47;6.87;;;2.60;99.90;;;;;;5039433;28;20177;-74
2023/12/02 04:13:11;;;;;;;10.60;6.80;;;2.60;99.90;;;;;;5050418;28;20219;-75
2023/12/02 04:15:36;;;;;;;9.63;7.00;;;2.60;99.90;;;;;;5033759;28;20624;-75
2023/12/02 04:18:02;;;;;;;11.27;7.43;;;2.60;99.90;;;;;;5051186;28;20173;-75
2023/12/02 04:20:28;;;;;;;8.57;6.93;;;2.60;99.90;;;;;;5032910;28;20176;-75
2023/12/02 04:22:53;;;;;;;8.87;5.93;;;2.60;99.90;;;;;;5055358;28;20283;-75
2023/12/02 04:25:19;;;;;;;8.70;6.10;;;2.60;99.90;;;;;;5032916;28;20618;-75
2023/12/02 04:27:46;;;;;;;9.00;6.93;;;2.60;99.90;;;;;;5036132;28;20185;-75
2023/12/02 04:30:12;;;;;;;6.60;5.43;;;2.60;99.90;;;;;;5033812;28;20181;-75
2023/12/02 04:32:37;;;;;;;7.45;5.65;;;2.60;99.90;;;;;;5048908;28;20608;-75
2023/12/02 04:35:05;;;;;;;7.17;6.33;;;2.60;99.90;;;;;;5051036;28;20198;-75
2023/12/02 04:37:31;;;;;;;8.20;6.07;;;2.60;99.90;;;;;;5033152;28;20611;-75
2023/12/02 04:39:57;;;;;;;7.50;5.20;;;2.60;99.90;;;;;;5050875;28;20613;-75
2023/12/02 04:42:23;;;;;;;6.70;5.10;;;2.60;99.90;;;;;;5052697;28;20240;-75
2023/12/02 04:44:49;;;;;;;7.53;5.80;;;2.60;99.90;;;;;;5046948;28;20181;-75
2023/12/02 04:47:15;;;;;;;6.80;5.93;;;2.60;99.90;;;;;;5032799;28;20602;-76
2023/12/02 04:49:41;;;;;;;8.17;6.33;;;2.60;99.90;;;;;;5050455;28;20207;-75
2023/12/02 04:52:06;;;;;;;7.40;6.07;;;2.60;99.90;;;;;;5051030;28;20685;-75
2023/12/02 04:54:35;;;;;;;5.73;4.83;;;2.60;99.90;;;;;;5040531;28;20254;-75
2023/12/02 04:57:01;;;;;;;6.72;5.53;;;2.60;99.90;;;;;;5070431;22;20300;-75
2023/12/02 04:59:27;;;;;;;8.75;6.13;;;2.70;99.90;;;;;;5052784;27;20174;-76
2023/12/02 05:01:53;;;;;;;7.70;5.63;;;2.70;99.90;;;;;;5065590;27;20180;-76
2023/12/02 05:04:19;;;;;;;8.53;7.00;;;2.70;99.90;;;;;;5071783;27;20563;-76
2023/12/02 05:06:44;;;;;;;7.07;6.07;;;2.60;99.90;;;;;;5073956;27;20189;-76
2023/12/02 05:09:10;;;;;;;8.30;5.90;;;2.60;99.90;;;;;;5161045;27;21122;-76
2023/12/02 05:11:36;;;;;;;9.97;7.10;;;2.70;99.90;;;;;;5148477;27;20980;-76
2023/12/02 05:14:02;;;;;;;8.40;6.67;;;2.70;99.90;;;;;;5051660;28;20170;-76
2023/12/02 05:16:27;;;;;;;8.37;5.57;;;2.70;99.90;;;;;;5052302;28;20210;-76
2023/12/02 05:18:53;;;;;;;7.23;5.93;;;2.60;99.90;;;;;;5142154;27;20579;-76
2023/12/02 05:21:19;;;;;;;7.27;6.07;;;2.70;99.90;;;;;;5057609;27;20182;-76
2023/12/02 05:23:45;;;;;;;7.67;6.40;;;2.60;99.90;;;;;;5055417;28;20181;-76
2023/12/02 05:26:10;;;;;;;9.43;7.25;;;2.60;99.90;;;;;;5139701;27;20198;-76
2023/12/02 05:28:38;;;;;;;7.73;6.07;;;2.70;99.90;;;;;;5140880;28;20187;-76
2023/12/02 05:31:04;;;;;;;8.73;7.05;;;2.70;99.90;;;;;;5061293;27;20189;-76
2023/12/02 05:33:29;;;;;;;8.10;6.53;;;2.70;99.90;;;;;;5073270;27;20555;-76
2023/12/02 05:35:55;;;;;;;7.30;5.83;;;2.70;99.90;;;;;;5148459;27;20619;-76
2023/12/02 05:38:21;;;;;;;8.17;6.50;;;2.70;99.90;;;;;;5020767;28;20175;-76
2023/12/02 05:40:46;;;;;;;6.40;5.50;;;2.70;99.90;;;;;;5054574;28;20190;-76
2023/12/02 05:43:13;;;;;;;7.82;6.50;;;2.70;99.90;;;;;;5142946;28;20184;-76
2023/12/02 05:45:39;;;;;;;7.88;6.70;;;2.70;99.90;;;;;;5141664;28;20166;-76
2023/12/02 05:48:05;;;;;;;9.90;7.57;;;2.80;99.90;;;;;;5140939;28;20177;-76
2023/12/02 05:50:31;;;;;;;11.50;8.02;;;2.70;99.90;;;;;;5053474;28;20604;-76
2023/12/02 05:52:57;;;;;;;8.70;7.22;;;2.70;99.90;;;;;;5054995;28;20198;-76
2023/12/02 05:55:22;;;;;;;9.47;7.43;;;2.70;99.90;;;;;;5054708;28;20238;-76
2023/12/02 05:57:48;;;;;;;10.03;7.90;;;2.70;99.90;;;;;;5052587;28;21038;-76
2023/12/02 06:00:17;;;;;;;10.60;7.80;;;2.70;99.90;;;;;;5144879;28;20229;-76
2023/12/02 06:02:42;;;;;;;8.45;7.55;;;2.70;99.90;;;;;;5142018;28;20772;-76
2023/12/02 06:05:08;;;;;;;9.57;6.70;;;2.70;99.90;;;;;;5056809;28;20264;-76
2023/12/02 06:07:34;;;;;;;7.03;6.13;;;2.70;99.90;;;;;;5056630;28;20194;-76
2023/12/02 06:10:00;;;;;;;7.37;6.10;;;2.70;99.90;;;;;;5145005;28;20256;-75
2023/12/02 06:12:27;;;;;;;7.97;6.40;;;2.70;99.90;;;;;;5056478;28;20230;-76
2023/12/02 06:14:52;;;;;;;8.27;6.70;;;2.70;99.90;;;;;;5144114;28;20523;-76
2023/12/02 06:17:18;;;;;;;8.17;6.43;;;2.70;99.90;;;;;;5141370;28;20596;-76
2023/12/02 06:19:44;;;;;;;11.83;8.80;;;2.60;99.90;;;;;;5056105;27;20186;-77
2023/12/02 06:22:09;;;;;;;7.77;6.63;;;2.60;99.90;;;;;;5145038;27;20170;-76
2023/12/02 06:24:35;;;;;;;9.87;8.83;;;2.60;99.90;;;;;;5056986;27;20181;-76
2023/12/02 06:27:01;;;;;;;9.30;7.17;;;2.60;99.90;;;;;;5057393;27;20207;-77
2023/12/02 06:29:26;;;;;;;9.30;7.10;;;2.60;99.90;;;;;;5055791;27;20193;-76
2023/12/02 06:31:53;;;;;;;9.47;7.13;;;2.50;99.90;;;;;;5038185;27;20194;-76
2023/12/02 06:34:19;;;;;;;7.97;6.40;;;2.50;99.90;;;;;;5056096;27;20197;-76
2023/12/02 06:36:45;;;;;;;8.43;7.50;;;2.50;99.90;;;;;;5147578;27;20193;-76
2023/12/02 06:39:15;;;;;;;10.97;7.77;;;2.50;99.90;;;;;;5144388;27;20167;-76
2023/12/02 06:41:41;;;;;;;9.05;7.72;;;2.50;99.90;;;;;;5059034;27;20182;-76
2023/12/02 06:44:10;;;;;;;9.68;8.00;;;2.50;99.90;;;;;;5161723;27;20166;-76
2023/12/02 06:46:36;;;;;;;9.90;8.50;;;2.40;99.90;;;;;;5075501;27;20261;-76
2023/12/02 06:49:02;;;;;;;10.40;8.07;;;2.40;99.90;;;;;;5164477;27;20205;-76
2023/12/02 06:51:29;;;;;;;9.60;8.17;;;2.40;99.90;;;;;;5165837;27;20205;-76
2023/12/02 06:53:56;;;;;;;12.93;9.73;;;2.40;99.90;;;;;;5166079;27;20520;-76
2023/12/02 06:56:22;;;;;;;10.85;8.57;;;2.40;99.90;;;;;;5075923;27;20201;-76
2023/12/02 06:58:49;;;;;;;8.40;7.47;;;2.40;99.90;;;;;;5165894;27;20165;-76
2023/12/02 07:01:23;;;;;;;9.18;7.57;;;2.40;99.90;;;;;;5078223;27;20173;-76
2023/12/02 07:03:48;;;;;;;12.05;8.63;;;2.40;99.90;;;;;;5161658;27;20189;-76
2023/12/02 07:06:15;;;;;;;12.73;8.80;;;2.40;99.90;;;;;;5057098;27;20186;-76
2023/12/02 07:08:41;;;;;;;11.80;8.77;;;2.40;99.90;;;;;;5057836;27;20170;-76
2023/12/02 07:11:07;;;;;;;10.80;7.90;;;2.40;99.90;;;;;;5021381;27;20213;-76
2023/12/02 07:13:33;;;;;;;12.40;8.87;;;2.30;99.90;;;;;;5141576;27;20166;-76
2023/12/02 07:15:58;;;;;;;10.63;8.67;;;2.30;99.90;;;;;;5052514;27;20628;-76
2023/12/02 07:18:24;;;;;;;10.07;7.90;;;2.30;99.90;;;;;;5056180;27;20184;-76
2023/12/02 07:20:49;;;;;;;11.40;8.80;;;2.30;99.90;;;;;;5057410;27;20224;-76
2023/12/02 07:23:15;;;;;;;10.43;8.70;;;2.30;99.90;;;;;;5056766;27;20235;-76
2023/12/02 07:25:41;;;;;;;12.80;8.73;;;2.30;99.90;;;;;;5145438;27;20165;-76
2023/12/02 07:28:06;;;;;;;12.80;9.30;;;2.30;99.90;;;;;;5062590;27;20171;-76
2023/12/02 07:30:33;;;;;;;9.03;7.73;;;2.30;99.90;;;;;;5062391;27;20178;-77
2023/12/02 07:32:58;;;;;;;10.77;8.13;;;2.30;99.90;;;;;;5151002;27;20209;-77
2023/12/02 07:35:24;;;;;;;11.13;8.23;;;2.20;99.90;;;;;;5047117;27;20159;-77
2023/12/02 07:37:50;;;;;;;12.27;9.37;;;2.20;99.90;;;;;;5144764;27;20186;-77
2023/12/02 07:40:15;;;;;;;11.20;8.33;;;2.20;99.90;;;;;;5138231;27;20175;-75
2023/12/02 07:42:41;;;;;;;14.20;9.97;;;2.20;99.90;;;;;;5030983;27;20174;-76
2023/12/02 07:45:07;;;;;;;10.77;8.27;;;2.20;99.90;;;;;;5056272;27;20184;-75
2023/12/02 07:47:32;;;;;;;10.63;7.40;;;2.20;99.90;;;;;;5160843;27;20192;-75
2023/12/02 07:49:58;;;;;;;9.83;7.00;;;2.20;99.90;;;;;;5070335;27;20583;-75
2023/12/02 07:52:24;;;;;;;11.70;8.47;;;2.20;99.90;;;;;;5074768;27;20215;-76
2023/12/02 07:54:51;;;;;;;8.77;7.22;;;2.20;99.90;;;;;;5158575;27;20221;-75
2023/12/02 07:57:16;;;;;;;10.10;7.47;;;2.20;99.90;;;;;;5072359;27;20197;-76
2023/12/02 07:59:42;;;;;;;8.33;6.40;;;2.20;99.90;;;;;;5073544;27;20686;-76
2023/12/02 08:02:07;;;;;;;9.70;6.50;;;2.20;99.90;;;;;;5072566;27;20277;-76
2023/12/02 08:04:33;;;;;;;9.40;7.43;;;2.20;99.90;;;;;;5159790;27;20224;-75
2023/12/02 08:06:59;;;;;;;9.53;6.07;;;2.20;99.90;;;;;;5049709;27;20201;-76
2023/12/02 08:09:24;;;;;;;9.70;8.10;;;2.30;99.90;;;;;;5143514;27;20253;-76
2023/12/02 08:11:50;;;;;;;10.77;7.80;;;2.30;99.90;;;;;;5149400;27;20194;-77
2023/12/02 08:14:16;;;;;;;13.20;9.30;;;2.30;99.90;;;;;;5056466;27;20178;-76
2023/12/02 08:16:41;;;;;;;12.17;9.07;;;2.30;99.90;;;;;;5057043;27;20186;-76
2023/12/02 08:19:07;;;;;;;11.63;9.13;;;2.30;99.90;;;;;;5062377;27;20175;-76
2023/12/02 08:21:33;;;;;;;13.23;9.10;;;2.30;99.90;;;;;;5059360;27;20550;-76
2023/12/02 08:23:58;;;;;;;12.27;8.60;;;2.30;99.90;;;;;;5041446;28;20531;-78
2023/12/02 08:26:24;;;;;;;10.73;8.03;;;2.30;99.90;;;;;;5030076;28;20191;-79
2023/12/02 08:28:50;;;;;;;11.43;8.20;;;2.30;99.90;;;;;;5040945;27;20181;-79
2023/12/02 08:31:16;;;;;;;10.03;7.13;;;2.30;99.90;;;;;;5045698;27;20624;-79
2023/12/02 08:33:41;;;;;;;10.60;8.07;;;2.30;99.90;;;;;;5131062;27;20580;-80
2023/12/02 08:36:08;;;;;;;11.00;7.80;;;2.30;99.90;;;;;;5031483;28;20222;-79
2023/12/02 08:38:34;;;;;;;11.68;8.00;;;2.40;99.90;;;;;;5033453;27;20187;-78
2023/12/02 08:40:59;;;;;;;11.70;7.80;;;2.50;99.90;;;;;;5139206;27;20177;-79
2023/12/02 08:43:25;;;;;;;13.67;9.07;;;2.50;99.90;;;;;;5126183;27;20664;-80
2023/12/02 08:45:51;;;;;;;10.50;8.33;;;2.60;99.90;;;;;;5049328;27;20660;-77
2023/12/02 08:48:17;;;;;;;13.60;9.30;;;2.60;99.90;;;;;;5044159;28;20590;-76
2023/12/02 08:50:43;;;;;;;11.43;9.87;;;2.70;99.90;;;;;;5158527;27;20150;-77
2023/12/02 08:53:09;;;;;;;9.65;7.75;;;2.80;99.90;;;;;;5057459;27;20680;-77
2023/12/02 08:55:35;;;;;;;13.15;9.23;;;2.80;99.90;;;;;;5041155;27;20628;-77
2023/12/02 08:58:02;;;;;;;13.07;9.10;;;2.80;99.90;;;;;;5142932;27;20180;-77
2023/12/02 09:00:29;;;;;;;12.02;9.30;;;2.80;99.90;;;;;;5142131;27;20572;-77
2023/12/02 09:02:55;;;;;;;12.45;9.50;;;2.90;99.90;;;;;;5039636;27;20182;-77
2023/12/02 09:05:21;;;;;;;13.47;9.50;;;2.90;99.90;;;;;;5145725;27;20169;-77
2023/12/02 09:07:47;;;;;;;15.55;10.25;;;2.90;99.90;;;;;;5055791;27;20218;-77
2023/12/02 09:10:13;;;;;;;13.70;10.02;;;2.90;99.90;;;;;;5040469;27;20158;-77
2023/12/02 09:12:39;;;;;;;12.45;8.82;;;3.00;99.90;;;;;;5146530;27;20218;-77
2023/12/02 09:15:14;;;;;;;11.30;8.03;;;3.00;99.90;;;;;;5103110;27;20701;-77
2023/12/02 09:18:08;;;;;;;15.57;9.68;;;3.00;99.90;;;;;;5046990;28;20187;-77
2023/12/02 09:20:49;;;;;;;11.45;9.07;;;3.00;99.90;;;;;;5047323;27;20189;-77
2023/12/02 09:23:18;;;;;;;15.27;9.80;;;3.10;99.90;;;;;;5150450;27;20162;-76
2023/12/02 09:25:46;;;;;;;16.67;11.00;;;3.10;99.90;;;;;;5150318;27;20173;-76
2023/12/02 09:28:17;;;;;;;14.07;9.80;;;3.10;99.90;;;;;;5144659;27;20202;-76
2023/12/02 09:30:59;;;;;;;15.20;9.40;;;3.10;99.90;;;;;;5150189;28;20166;-77
2023/12/02 09:33:26;;;;;;;14.82;9.40;;;3.10;99.90;;;;;;5150186;28;20158;-76
2023/12/02 09:35:57;;;;;;;12.93;9.95;;;3.20;99.90;;;;;;5152021;28;20159;-76
2023/12/02 09:38:23;;;;;;;11.40;8.93;;;3.20;99.90;;;;;;5157471;27;20178;-76
2023/12/02 09:41:12;;;;;;;14.73;9.68;;;3.30;99.90;;;;;;5168432;27;20181;-77
2023/12/02 09:43:48;;;;;;;17.35;11.00;;;3.30;99.90;;;;;;5079109;27;20158;-76
2023/12/02 09:46:22;;;;;;;12.65;8.05;;;3.30;99.90;;;;;;5142420;27;20307;-76
2023/12/02 09:49:08;;;;;;;12.90;8.23;;;3.40;99.90;;;;;;5057979;28;20162;-76
2023/12/02 09:51:56;;;;;;;11.13;8.30;;;3.40;99.90;;;;;;5034311;28;20256;-76
2023/12/02 09:54:27;;;;;;;11.82;8.40;;;3.40;99.90;;;;;;5131642;27;20178;-76
2023/12/02 09:56:57;;;;;;;11.07;8.35;;;3.50;99.90;;;;;;5043807;27;20213;-76
2023/12/02 09:59:50;;;;;;;11.10;8.13;;;3.50;99.90;;;;;;5069499;27;20166;-76
2023/12/02 10:02:22;;;;;;;12.10;7.93;;;3.60;99.90;;;;;;5050372;27;20173;-76
2023/12/02 10:05:08;;;;;;;10.93;8.27;;;3.60;99.90;;;;;;5163781;27;20206;-76
2023/12/02 10:08:14;;;;;;;12.65;8.85;;;3.70;99.90;;;;;;5039452;27;20241;-76
2023/12/02 10:10:52;;;;;;;11.70;8.15;;;3.80;99.90;;;;;;5062128;27;20177;-76
2023/12/02 10:13:25;;;;;;;15.05;10.07;;;3.80;99.90;;;;;;5122959;28;20175;-76
2023/12/02 10:15:55;;;;;;;11.82;8.90;;;3.80;99.90;;;;;;5055506;27;20201;-77
2023/12/02 10:18:22;;;;;;;13.38;8.30;;;3.90;99.90;;;;;;5052162;27;20700;-77
2023/12/02 10:20:57;;;;;;;13.32;9.45;;;3.90;99.90;;;;;;5146272;27;20273;-75
2023/12/02 10:23:41;;;;;;;12.48;8.38;;;3.90;99.90;;;;;;5142433;27;20193;-76
2023/12/02 10:26:28;;;;;;;12.63;8.73;;;3.90;99.90;;;;;;5050953;27;20194;-76
2023/12/02 10:29:09;;;;;;;11.75;8.10;;;3.90;99.90;;;;;;5051168;27;20178;-76
2023/12/02 10:31:36;;;;;;;11.65;7.55;;;3.90;99.90;;;;;;5046335;27;20222;-76
2023/12/02 10:34:15;;;;;;;9.65;6.90;;;3.90;99.90;;;;;;5134884;27;20231;-76
2023/12/02 10:36:45;;;;;;;10.65;7.97;;;3.90;99.90;;;;;;5132997;27;20186;-76
2023/12/02 10:39:13;;;;;;;10.45;7.68;;;3.90;99.90;;;;;;5128046;27;20179;-76
2023/12/02 10:41:51;;;;;;;15.45;9.30;;;3.90;99.90;;;;;;5118123;27;20191;-76
2023/12/02 10:44:20;;;;;;;10.05;7.03;;;3.90;99.90;;;;;;5044159;27;20207;-76
2023/12/02 10:46:48;;;;;;;11.18;8.10;;;4.00;99.90;;;;;;5052015;27;20198;-76
2023/12/02 10:49:14;;;;;;;12.52;9.10;;;4.00;99.90;;;;;;5129761;27;20174;-75
2023/12/02 10:51:42;;;;;;;12.95;7.30;;;4.00;99.90;;;;;;5050506;27;20198;-76
2023/12/02 10:54:12;;;;;;;13.57;8.00;;;4.10;99.90;;;;;;5140426;27;20235;-75
2023/12/02 10:56:39;;;;;;;10.40;8.32;;;4.00;99.90;;;;;;5033543;28;20593;-76
2023/12/02 10:59:08;;;;;;;9.95;7.72;;;4.10;99.90;;;;;;5005783;28;20178;-77
2023/12/02 11:01:58;;;;;;;9.75;7.05;;;4.10;99.90;;;;;;5075595;22;20212;-73
2023/12/02 11:04:30;;;;;;;10.10;7.75;;;4.10;99.90;;;;;;5037974;28;20222;-73
2023/12/02 11:07:03;;;;;;;11.05;8.60;;;4.00;99.90;;;;;;5073034;28;20264;-73
2023/12/02 11:09:57;;;;;;;16.38;10.20;;;4.00;99.90;;;;;;5051749;28;20797;-73
2023/12/02 11:12:31;;;;;;;11.30;8.45;;;4.00;99.90;;;;;;5051279;28;20744;-73
2023/12/02 11:15:09;;;;;;;11.82;8.88;;;4.00;99.90;;;;;;4998596;28;20178;-73
2023/12/02 11:17:46;;;;;;;10.60;7.90;;;4.00;99.90;;;;;;5049573;28;20173;-74
2023/12/02 11:20:20;;;;;;;11.93;8.75;;;4.00;99.90;;;;;;5048232;28;20788;-73
2023/12/02 11:23:10;;;;;;;10.48;7.57;;;4.00;99.90;;;;;;5048149;28;20201;-72
2023/12/02 11:26:02;;;;;;;11.52;8.23;;;4.10;99.90;;;;;;5034341;28;20716;-73
2023/12/02 11:29:06;;;;;;;9.27;7.85;;;4.10;99.90;;;;;;5023540;28;20662;-73
2023/12/02 11:31:49;;;;;;;10.25;6.97;;;4.10;99.90;;;;;;5034156;28;20350;-73
2023/12/02 11:34:58;;;;;;;9.02;7.07;;;4.10;99.90;;;;;;5046475;28;20583;-72
2023/12/02 11:37:53;;;;;;;11.00;8.65;;;4.20;99.90;;;;;;5034304;28;20173;-72
2023/12/02 11:40:22;;;;;;;10.82;9.27;;;4.20;99.90;;;;;;5040276;28;20272;-73
2023/12/02 11:43:15;;;;;;;10.77;8.00;;;4.20;99.90;;;;;;5017280;28;20201;-73
2023/12/02 11:45:51;;;;;;;8.75;6.93;;;4.20;99.90;;;;;;5047919;28;20258;-73
2023/12/02 11:48:27;;;;;;;10.73;7.10;;;4.30;99.90;;;;;;5039264;28;20276;-73
2023/12/02 11:51:14;;;;;;;9.07;7.95;;;4.30;99.90;;;;;;5033813;28;20204;-72
2023/12/02 11:54:01;;;;;;;10.05;7.28;;;4.30;99.90;;;;;;5033662;28;20177;-73
2023/12/02 11:56:27;;;;;;;8.82;6.70;;;4.40;99.90;;;;;;5049385;28;20252;-72
2023/12/02 11:59:12;;;;;;;8.40;7.20;;;4.40;99.90;;;;;;5033788;28;20226;-73
2023/12/02 12:01:48;;;;;;;9.27;7.55;;;4.40;99.90;;;;;;5032228;28;20744;-73
2023/12/02 12:04:34;;;;;;;10.07;8.68;;;4.40;99.90;;;;;;5033716;28;20234;-73
2023/12/02 12:07:12;;;;;;;9.50;6.72;;;4.40;99.90;;;;;;5043730;28;20226;-73
2023/12/02 12:09:45;;;;;;;8.80;7.47;;;4.40;99.90;;;;;;5051552;28;20658;-72
2023/12/02 12:12:11;;;;;;;8.00;6.88;;;4.40;99.90;;;;;;5033833;28;20572;-72
2023/12/02 12:14:39;;;;;;;11.27;8.55;;;4.50;99.90;;;;;;5030044;28;20174;-73
2023/12/02 12:17:05;;;;;;;11.15;8.25;;;4.50;99.90;;;;;;5033220;28;20227;-72
2023/12/02 12:19:30;;;;;;;11.95;8.45;;;4.50;99.90;;;;;;5051436;28;20169;-74
2023/12/02 12:21:56;;;;;;;10.60;8.80;;;4.50;99.90;;;;;;5016998;28;20193;-72
2023/12/02 12:24:22;;;;;;;11.70;8.40;;;4.60;99.90;;;;;;5033194;28;20598;-72
2023/12/02 12:26:51;;;;;;;12.17;10.00;;;4.60;99.90;;;;;;5033541;28;20671;-72
2023/12/02 12:29:17;;;;;;;10.90;9.45;;;4.60;99.90;;;;;;5042905;28;20203;-72
2023/12/02 12:31:42;;;;;;;10.40;8.10;;;4.60;99.90;;;;;;5014465;28;20237;-72
2023/12/02 12:34:12;;;;;;;10.60;8.07;;;4.50;99.90;;;;;;5016711;28;20181;-72
2023/12/02 12:36:40;;;;;;;10.32;8.20;;;4.50;99.90;;;;;;5033342;28;20592;-72
2023/12/02 12:39:07;;;;;;;12.23;8.40;;;4.50;99.90;;;;;;5016680;28;20197;-72
2023/12/02 12:41:39;;;;;;;10.20;9.00;;;4.40;99.90;;;;;;5033226;28;20201;-73
2023/12/02 12:44:05;;;;;;;13.30;10.18;;;4.40;99.90;;;;;;5050599;28;20180;-72
2023/12/02 12:46:31;;;;;;;12.85;10.18;;;4.40;99.90;;;;;;5032657;28;20655;-72
2023/12/02 12:49:00;;;;;;;14.32;11.43;;;4.40;99.90;;;;;;5016404;28;20192;-72
2023/12/02 12:51:29;;;;;;;13.25;9.85;;;4.40;99.90;;;;;;5016556;28;20201;-73
2023/12/02 12:53:59;;;;;;;12.88;9.50;;;4.40;99.90;;;;;;5032716;28;20173;-72
2023/12/02 12:56:46;;;;;;;12.80;9.80;;;4.40;99.90;;;;;;5033246;28;20311;-72
2023/12/02 12:59:18;;;;;;;10.27;8.65;;;4.40;99.90;;;;;;5032920;28;20172;-73